Time;durP1;ratioP1;P1;durP2;ratioP2;P2;SDS_P1;SDS_P2;PMS_P1;PMS_P2;Temp;Humidity;BMP_temperature;BMP_pressure;BME280_temperature;BME280_humidity;BME280_pressure;Samples;Min_cycle;Max_cycle;Signal;HPM_P1;HPM_P2
2021/04/22 00:01:14;;;;;;;14.10;4.72;;;6.60;75.40;;;;;;5134186;27;20035;-71
2021/04/22 00:03:39;;;;;;;11.07;3.30;;;6.60;75.20;;;;;;5134602;27;20043;-71
2021/04/22 00:06:05;;;;;;;17.45;3.25;;;6.60;75.10;;;;;;5133662;27;20039;-71
2021/04/22 00:08:31;;;;;;;9.25;2.75;;;6.60;74.10;;;;;;5134071;27;20046;-71
2021/04/22 00:10:57;;;;;;;15.05;3.88;;;6.60;73.20;;;;;;5137655;27;20421;-71
2021/04/22 00:13:26;;;;;;;7.82;2.65;;;6.60;73.50;;;;;;5138105;27;20039;-71
2021/04/22 00:15:53;;;;;;;10.43;3.05;;;6.60;73.60;;;;;;5137765;27;20035;-70
2021/04/22 00:18:19;;;;;;;15.70;3.97;;;6.60;72.80;;;;;;5138888;27;20043;-71
2021/04/22 00:20:46;;;;;;;18.60;3.95;;;6.50;73.10;;;;;;5138192;27;20110;-71
2021/04/22 00:23:13;;;;;;;20.48;3.33;;;6.40;73.30;;;;;;5138200;27;20047;-71
2021/04/22 00:25:42;;;;;;;13.18;3.47;;;6.30;73.20;;;;;;5138026;27;20043;-71
2021/04/22 00:28:10;;;;;;;12.43;3.63;;;6.30;73.70;;;;;;5136830;27;20051;-71
2021/04/22 00:30:40;;;;;;;14.80;2.95;;;6.40;73.20;;;;;;5138291;27;20043;-71
2021/04/22 00:33:12;;;;;;;15.20;3.28;;;6.30;73.70;;;;;;5137795;27;20031;-71
2021/04/22 00:35:38;;;;;;;13.05;3.10;;;6.30;72.60;;;;;;5137886;27;20395;-71
2021/04/22 00:38:05;;;;;;;16.45;3.25;;;6.30;72.80;;;;;;5138045;27;20033;-71
2021/04/22 00:40:32;;;;;;;15.35;3.10;;;6.40;73.10;;;;;;5138109;27;20035;-71
2021/04/22 00:43:03;;;;;;;12.32;3.50;;;6.40;72.60;;;;;;5138298;27;20042;-70
2021/04/22 00:45:29;;;;;;;10.52;3.17;;;6.60;73.00;;;;;;5137413;27;20115;-71
2021/04/22 00:47:55;;;;;;;9.18;3.17;;;6.50;72.80;;;;;;5137893;27;20039;-71
2021/04/22 00:50:28;;;;;;;16.40;3.38;;;6.50;73.00;;;;;;5137695;27;20062;-71
2021/04/22 00:52:55;;;;;;;12.35;3.08;;;6.60;71.90;;;;;;5137665;27;20043;-71
2021/04/22 00:55:21;;;;;;;10.18;3.38;;;6.50;71.60;;;;;;5137034;27;20130;-70
2021/04/22 00:57:47;;;;;;;14.27;3.00;;;6.50;71.80;;;;;;5137238;27;20148;-70
2021/04/22 01:00:16;;;;;;;21.95;3.03;;;6.50;72.30;;;;;;5137665;27;20066;-71
2021/04/22 01:02:42;;;;;;;14.98;3.58;;;6.40;72.40;;;;;;5137304;27;20095;-70
2021/04/22 01:05:17;;;;;;;12.50;3.00;;;6.30;72.60;;;;;;5136705;27;20060;-71
2021/04/22 01:07:45;;;;;;;14.60;2.80;;;6.30;73.30;;;;;;5136908;27;20072;-70
2021/04/22 01:10:13;;;;;;;14.32;2.63;;;6.30;73.60;;;;;;5137063;27;20395;-71
2021/04/22 01:12:39;;;;;;;12.93;3.03;;;6.20;74.20;;;;;;5131732;27;20040;-71
2021/04/22 01:15:10;;;;;;;10.20;2.72;;;6.20;74.60;;;;;;5116250;28;20100;-70
2021/04/22 01:17:37;;;;;;;13.38;4.07;;;6.20;75.20;;;;;;5116533;28;20120;-70
2021/04/22 01:20:21;;;;;;;11.05;2.58;;;6.20;75.20;;;;;;5116551;28;20040;-71
2021/04/22 01:22:48;;;;;;;13.25;3.60;;;6.20;75.70;;;;;;5116779;28;20040;-71
2021/04/22 01:25:17;;;;;;;10.20;2.78;;;6.20;75.70;;;;;;5116125;28;20083;-70
2021/04/22 01:27:43;;;;;;;13.43;3.40;;;6.30;76.50;;;;;;5116207;28;20138;-70
2021/04/22 01:30:18;;;;;;;14.82;4.20;;;6.40;75.90;;;;;;5116470;28;20044;-71
2021/04/22 01:32:44;;;;;;;13.65;3.25;;;6.40;76.50;;;;;;5116710;28;20092;-71
2021/04/22 01:35:13;;;;;;;13.68;3.35;;;6.40;76.10;;;;;;5116274;28;20039;-71
2021/04/22 01:37:39;;;;;;;17.50;4.43;;;6.40;76.60;;;;;;5116202;28;20087;-71
2021/04/22 01:40:06;;;;;;;8.52;2.40;;;6.50;75.60;;;;;;5116579;28;20035;-70
2021/04/22 01:42:32;;;;;;;18.58;2.90;;;6.50;75.70;;;;;;5115993;28;20035;-70
2021/04/22 01:44:58;;;;;;;13.63;3.65;;;6.50;75.50;;;;;;5115890;28;20032;-71
2021/04/22 01:47:23;;;;;;;22.15;3.83;;;6.50;75.10;;;;;;5116555;28;20068;-71
2021/04/22 01:49:49;;;;;;;16.52;2.88;;;6.50;75.00;;;;;;5115865;28;20119;-71
2021/04/22 01:52:15;;;;;;;14.27;2.97;;;6.60;75.60;;;;;;5115859;28;20055;-71
2021/04/22 01:54:41;;;;;;;15.98;2.97;;;6.60;75.40;;;;;;5115664;28;20040;-71
2021/04/22 01:57:07;;;;;;;11.88;3.20;;;6.60;75.30;;;;;;5115876;28;20040;-70
2021/04/22 01:59:33;;;;;;;14.90;3.58;;;6.60;75.10;;;;;;5116077;28;20031;-70
2021/04/22 02:01:59;;;;;;;10.57;3.17;;;6.50;75.60;;;;;;5116147;27;20031;-70
2021/04/22 02:04:29;;;;;;;15.63;3.00;;;6.50;75.40;;;;;;5115168;28;20553;-71
2021/04/22 02:06:54;;;;;;;7.93;2.13;;;6.50;75.80;;;;;;5115329;28;20072;-70
2021/04/22 02:09:20;;;;;;;12.25;2.83;;;6.50;75.80;;;;;;5115449;28;20035;-70
2021/04/22 02:11:46;;;;;;;14.95;3.75;;;6.60;75.70;;;;;;5115453;28;20050;-70
2021/04/22 02:14:11;;;;;;;12.10;2.95;;;6.60;76.50;;;;;;5115719;28;20048;-70
2021/04/22 02:16:38;;;;;;;11.18;2.80;;;6.60;76.60;;;;;;5115396;27;20038;-70
2021/04/22 02:19:04;;;;;;;14.70;3.85;;;6.60;76.10;;;;;;5115135;27;20036;-70
2021/04/22 02:21:31;;;;;;;11.20;3.53;;;6.70;76.10;;;;;;5115435;28;20048;-70
2021/04/22 02:23:56;;;;;;;13.25;3.10;;;6.60;76.10;;;;;;5115302;28;20550;-70
2021/04/22 02:26:22;;;;;;;16.38;3.45;;;6.60;76.20;;;;;;5114794;27;20110;-71
2021/04/22 02:28:48;;;;;;;12.95;4.28;;;6.60;75.70;;;;;;5114978;28;20118;-70
2021/04/22 02:31:15;;;;;;;21.15;3.92;;;6.70;75.80;;;;;;5114844;28;20051;-70
2021/04/22 02:33:41;;;;;;;17.50;3.17;;;6.60;75.80;;;;;;5114904;28;20039;-71
2021/04/22 02:36:07;;;;;;;14.77;3.33;;;6.60;75.90;;;;;;5114472;28;20061;-70
2021/04/22 02:38:33;;;;;;;10.45;3.60;;;6.70;75.60;;;;;;5115203;28;20123;-71
2021/04/22 02:40:59;;;;;;;14.93;3.28;;;6.70;75.50;;;;;;5114772;28;20035;-70
2021/04/22 02:43:25;;;;;;;13.63;3.53;;;6.60;75.70;;;;;;5114654;28;20043;-71
2021/04/22 02:45:55;;;;;;;13.48;3.00;;;6.60;75.70;;;;;;5114429;27;20471;-70
2021/04/22 02:48:22;;;;;;;7.82;3.17;;;6.70;75.40;;;;;;5114630;28;20032;-70
2021/04/22 02:50:50;;;;;;;14.07;2.65;;;6.70;75.70;;;;;;5115099;28;20035;-71
2021/04/22 02:53:16;;;;;;;13.73;3.33;;;6.70;75.60;;;;;;5114953;28;20035;-70
2021/04/22 02:55:45;;;;;;;17.15;3.50;;;6.60;75.10;;;;;;5114189;27;20043;-71
2021/04/22 02:58:11;;;;;;;12.73;3.63;;;6.70;74.70;;;;;;5114526;27;20031;-70
2021/04/22 03:00:38;;;;;;;13.35;3.03;;;6.70;74.50;;;;;;5114383;28;20039;-70
2021/04/22 03:03:05;;;;;;;17.30;3.55;;;6.70;74.70;;;;;;5114453;28;20039;-70
2021/04/22 03:05:31;;;;;;;9.98;3.08;;;6.70;74.70;;;;;;5114189;28;20044;-71
2021/04/22 03:07:57;;;;;;;16.95;3.85;;;6.70;74.70;;;;;;5114505;28;20482;-70
2021/04/22 03:10:25;;;;;;;11.90;3.38;;;6.60;74.40;;;;;;5114530;28;20042;-70
2021/04/22 03:12:51;;;;;;;14.85;3.38;;;6.70;74.30;;;;;;5114652;28;20036;-71
2021/04/22 03:15:17;;;;;;;12.23;3.50;;;6.60;73.60;;;;;;5113040;28;20054;-70
2021/04/22 03:17:44;;;;;;;19.23;3.78;;;6.70;73.40;;;;;;5114057;28;20080;-71
2021/04/22 03:20:11;;;;;;;14.15;3.40;;;6.70;73.60;;;;;;5114186;28;20111;-70
2021/04/22 03:22:38;;;;;;;15.93;3.70;;;6.70;73.60;;;;;;5113956;28;20059;-70
2021/04/22 03:25:07;;;;;;;16.63;2.95;;;6.70;73.60;;;;;;5113549;28;20043;-71
2021/04/22 03:27:33;;;;;;;15.32;3.05;;;6.70;74.00;;;;;;5114410;28;20097;-70
2021/04/22 03:29:59;;;;;;;16.75;3.25;;;6.70;73.90;;;;;;5114480;28;20467;-70
2021/04/22 03:32:26;;;;;;;17.80;3.58;;;6.70;74.10;;;;;;5113783;28;20049;-70
2021/04/22 03:34:52;;;;;;;10.38;3.10;;;6.70;74.30;;;;;;5113588;28;20040;-71
2021/04/22 03:37:18;;;;;;;14.32;3.28;;;6.70;74.40;;;;;;5114104;28;20423;-71
2021/04/22 03:39:44;;;;;;;14.13;3.63;;;6.60;73.90;;;;;;5112964;28;20035;-71
2021/04/22 03:42:10;;;;;;;18.70;3.20;;;6.70;74.40;;;;;;5114512;28;20093;-70
2021/04/22 03:44:35;;;;;;;13.57;3.58;;;6.70;74.20;;;;;;5113153;28;20040;-71
2021/04/22 03:47:02;;;;;;;13.80;3.42;;;6.70;74.50;;;;;;5113718;28;20040;-70
2021/04/22 03:49:27;;;;;;;11.60;3.33;;;6.70;74.50;;;;;;5113876;28;20059;-70
2021/04/22 03:51:53;;;;;;;18.15;4.30;;;6.70;74.10;;;;;;5114139;28;20036;-70
2021/04/22 03:54:19;;;;;;;18.70;4.00;;;6.70;73.90;;;;;;5112855;28;20043;-71
2021/04/22 03:56:44;;;;;;;17.63;3.22;;;6.70;73.70;;;;;;5113418;28;20039;-70
2021/04/22 03:59:10;;;;;;;15.52;3.50;;;6.70;74.10;;;;;;5114124;28;20028;-70
2021/04/22 04:01:36;;;;;;;12.40;3.42;;;6.70;73.90;;;;;;5113563;28;20036;-70
2021/04/22 04:04:03;;;;;;;14.05;3.58;;;6.70;74.00;;;;;;5113617;28;20087;-70
2021/04/22 04:06:28;;;;;;;18.58;4.40;;;6.80;74.50;;;;;;5112896;28;20040;-71
2021/04/22 04:08:54;;;;;;;14.10;3.60;;;6.70;74.30;;;;;;5113285;28;20038;-71
2021/04/22 04:11:21;;;;;;;13.63;4.38;;;6.80;74.70;;;;;;5113505;28;20411;-70
2021/04/22 04:13:46;;;;;;;15.65;2.80;;;6.70;74.50;;;;;;5113869;28;20566;-70
2021/04/22 04:16:12;;;;;;;13.50;3.92;;;6.70;74.50;;;;;;5113459;28;20071;-70
2021/04/22 04:18:38;;;;;;;17.80;3.20;;;6.80;74.60;;;;;;5113313;28;20032;-70
2021/04/22 04:21:04;;;;;;;14.18;2.83;;;6.80;75.10;;;;;;5113948;28;20051;-71
2021/04/22 04:23:29;;;;;;;10.43;3.33;;;6.70;74.80;;;;;;5113768;28;20516;-70
2021/04/22 04:25:55;;;;;;;12.90;3.38;;;6.70;75.00;;;;;;5113047;28;20040;-71
2021/04/22 04:28:20;;;;;;;13.07;2.85;;;6.80;75.40;;;;;;5114429;28;20044;-71
2021/04/22 04:30:46;;;;;;;12.55;3.28;;;6.70;74.50;;;;;;5113288;28;20157;-70
2021/04/22 04:33:13;;;;;;;14.38;3.75;;;6.70;74.70;;;;;;5113670;28;20364;-70
2021/04/22 04:35:38;;;;;;;9.45;3.33;;;6.80;74.80;;;;;;5113089;28;20109;-71
2021/04/22 04:38:04;;;;;;;12.02;3.05;;;6.70;74.60;;;;;;5113725;28;20077;-70
2021/04/22 04:40:34;;;;;;;19.73;3.38;;;6.70;75.00;;;;;;5113760;28;20111;-70
2021/04/22 04:43:01;;;;;;;18.75;5.97;;;6.70;74.80;;;;;;5113263;28;20126;-70
2021/04/22 04:45:27;;;;;;;16.65;3.70;;;6.70;75.60;;;;;;5113002;28;20164;-70
2021/04/22 04:47:53;;;;;;;13.77;4.20;;;6.70;75.40;;;;;;5113704;28;20356;-71
2021/04/22 04:50:19;;;;;;;16.25;3.38;;;6.70;75.10;;;;;;5113146;28;20115;-70
2021/04/22 04:52:47;;;;;;;23.92;4.38;;;6.70;75.60;;;;;;5095493;28;20106;-70
2021/04/22 04:55:15;;;;;;;20.13;3.42;;;6.70;75.40;;;;;;5113162;28;20043;-70
2021/04/22 04:57:41;;;;;;;16.15;3.42;;;6.70;74.80;;;;;;5117313;28;20221;-70
2021/04/22 05:00:09;;;;;;;10.70;3.03;;;6.60;73.40;;;;;;5116893;28;20040;-70
2021/04/22 05:02:35;;;;;;;7.53;3.42;;;6.60;73.30;;;;;;5116931;28;20464;-70
2021/04/22 05:05:02;;;;;;;12.82;2.70;;;6.50;73.90;;;;;;5116384;28;20131;-70
2021/04/22 05:07:28;;;;;;;9.90;2.88;;;6.70;74.80;;;;;;5116330;28;20039;-70
2021/04/22 05:09:56;;;;;;;16.45;3.83;;;6.70;74.00;;;;;;5116589;28;20066;-70
2021/04/22 05:12:23;;;;;;;15.35;3.72;;;6.70;73.60;;;;;;5116621;28;20372;-70
2021/04/22 05:14:49;;;;;;;17.85;3.78;;;6.60;73.00;;;;;;5116588;28;20040;-70
2021/04/22 05:17:17;;;;;;;15.90;3.67;;;6.70;72.70;;;;;;5117055;27;20047;-70
2021/04/22 05:19:43;;;;;;;9.63;2.92;;;6.70;72.60;;;;;;5116483;28;20028;-70
2021/04/22 05:22:09;;;;;;;17.73;4.32;;;6.70;73.20;;;;;;5116190;28;20036;-70
2021/04/22 05:24:35;;;;;;;13.55;3.30;;;6.70;72.40;;;;;;5116485;28;20042;-71
2021/04/22 05:27:01;;;;;;;16.08;3.13;;;6.80;72.70;;;;;;5116258;28;20036;-71
2021/04/22 05:29:26;;;;;;;12.93;3.40;;;6.70;72.30;;;;;;5116807;28;20078;-70
2021/04/22 05:31:53;;;;;;;13.10;3.50;;;6.70;72.60;;;;;;5116119;28;20043;-70
2021/04/22 05:34:19;;;;;;;17.88;4.45;;;6.80;72.70;;;;;;5116024;27;20039;-71
2021/04/22 05:36:45;;;;;;;17.60;3.35;;;6.80;73.40;;;;;;5116416;28;20138;-70
2021/04/22 05:39:10;;;;;;;16.30;4.18;;;6.80;73.30;;;;;;5115592;28;20084;-70
2021/04/22 05:41:36;;;;;;;13.10;3.10;;;6.80;73.10;;;;;;5116312;28;20035;-70
2021/04/22 05:44:03;;;;;;;15.88;3.60;;;6.90;72.90;;;;;;5115889;28;20053;-70
2021/04/22 05:46:28;;;;;;;18.75;4.57;;;6.90;72.20;;;;;;5115393;28;20051;-70
2021/04/22 05:48:55;;;;;;;12.43;3.85;;;6.90;72.10;;;;;;5116045;28;20044;-70
2021/04/22 05:51:21;;;;;;;10.60;3.17;;;6.90;71.70;;;;;;5114495;28;20039;-70
2021/04/22 05:53:47;;;;;;;17.05;4.00;;;7.00;71.40;;;;;;5116371;28;20044;-70
2021/04/22 05:56:13;;;;;;;9.80;3.00;;;7.00;70.40;;;;;;5114206;28;20092;-70
2021/04/22 05:58:39;;;;;;;12.10;3.05;;;7.20;70.80;;;;;;5115661;28;20496;-70
2021/04/22 06:01:04;;;;;;;13.98;3.45;;;7.20;70.90;;;;;;5115780;28;20484;-70
2021/04/22 06:03:31;;;;;;;13.70;3.33;;;7.30;72.40;;;;;;5114379;28;20398;-70
2021/04/22 06:05:56;;;;;;;11.05;3.65;;;7.30;71.80;;;;;;5115189;28;20054;-70
2021/04/22 06:08:22;;;;;;;16.02;4.65;;;7.40;71.90;;;;;;5114208;28;20039;-70
2021/04/22 06:10:48;;;;;;;15.57;3.30;;;7.40;71.60;;;;;;5115475;28;20050;-70
2021/04/22 06:13:13;;;;;;;14.40;4.05;;;7.30;71.10;;;;;;5115500;28;20124;-71
2021/04/22 06:15:40;;;;;;;12.07;3.50;;;7.40;71.60;;;;;;5115068;28;20043;-70
2021/04/22 06:18:08;;;;;;;16.52;3.97;;;7.40;71.50;;;;;;5114948;28;20040;-70
2021/04/22 06:20:34;;;;;;;18.95;3.72;;;7.40;71.80;;;;;;5115648;28;20031;-71
2021/04/22 06:23:00;;;;;;;16.02;3.88;;;7.40;71.40;;;;;;5115207;28;20661;-70
2021/04/22 06:25:26;;;;;;;17.13;3.65;;;7.40;71.50;;;;;;5114563;28;20399;-71
2021/04/22 06:27:57;;;;;;;10.13;3.03;;;7.50;70.50;;;;;;5114890;28;20048;-70
2021/04/22 06:30:24;;;;;;;13.65;3.53;;;7.60;69.40;;;;;;5115084;28;20493;-71
2021/04/22 06:32:49;;;;;;;10.65;3.28;;;7.60;69.60;;;;;;5115382;28;20065;-71
2021/04/22 06:35:16;;;;;;;13.98;4.18;;;7.50;68.40;;;;;;5114368;28;20043;-71
2021/04/22 06:37:44;;;;;;;12.27;4.00;;;7.60;68.80;;;;;;5114778;28;20043;-71
2021/04/22 06:40:14;;;;;;;12.98;3.78;;;7.60;69.20;;;;;;5115104;28;20032;-70
2021/04/22 06:42:41;;;;;;;12.40;4.20;;;7.60;69.50;;;;;;5115215;28;20092;-70
2021/04/22 06:45:09;;;;;;;12.77;3.83;;;7.50;69.10;;;;;;5114291;28;20449;-69
2021/04/22 06:47:35;;;;;;;10.68;3.35;;;7.60;69.30;;;;;;5114590;28;20032;-70
2021/04/22 06:50:03;;;;;;;17.65;4.53;;;7.70;69.70;;;;;;5115287;28;20110;-70
2021/04/22 06:52:29;;;;;;;13.85;3.55;;;7.70;69.00;;;;;;5114590;28;20035;-70
2021/04/22 06:54:55;;;;;;;10.43;2.85;;;7.70;68.90;;;;;;5114145;27;20547;-70
2021/04/22 06:57:20;;;;;;;12.40;3.35;;;7.70;69.20;;;;;;5114850;28;20032;-70
2021/04/22 06:59:47;;;;;;;10.93;2.78;;;7.60;69.50;;;;;;5114857;28;20055;-70
2021/04/22 07:02:13;;;;;;;11.52;3.00;;;7.60;69.30;;;;;;5114375;28;20074;-70
2021/04/22 07:04:38;;;;;;;10.40;3.42;;;7.60;69.50;;;;;;5113898;28;20043;-70
2021/04/22 07:07:10;;;;;;;13.20;2.70;;;7.70;69.60;;;;;;5114434;28;20598;-70
2021/04/22 07:09:55;;;;;;;12.80;3.33;;;7.80;69.70;;;;;;5113806;28;20088;-70
2021/04/22 07:12:21;;;;;;;13.80;2.50;;;7.70;68.70;;;;;;5114145;28;20039;-70
2021/04/22 07:14:47;;;;;;;11.15;2.50;;;7.60;67.00;;;;;;5114536;28;20058;-70
2021/04/22 07:17:12;;;;;;;8.10;2.75;;;7.60;68.20;;;;;;5114835;28;20380;-70
2021/04/22 07:19:50;;;;;;;17.13;3.97;;;7.70;68.90;;;;;;5114076;28;20027;-70
2021/04/22 07:22:24;;;;;;;11.90;3.70;;;7.80;68.80;;;;;;5114550;28;20050;-70
2021/04/22 07:24:52;;;;;;;15.23;3.08;;;7.90;69.10;;;;;;5113927;28;20043;-70
2021/04/22 07:27:39;;;;;;;14.52;3.28;;;7.90;68.50;;;;;;5113183;28;20051;-70
2021/04/22 07:30:06;;;;;;;10.43;2.65;;;8.00;68.90;;;;;;5114308;28;20059;-70
2021/04/22 07:32:32;;;;;;;8.02;2.60;;;8.00;68.60;;;;;;5114147;28;20035;-69
2021/04/22 07:34:58;;;;;;;8.85;2.85;;;8.20;68.90;;;;;;5113566;28;20402;-70
2021/04/22 07:37:24;;;;;;;17.15;3.00;;;8.40;68.60;;;;;;5113828;28;20071;-70
2021/04/22 07:39:50;;;;;;;11.32;3.22;;;8.30;68.10;;;;;;5114506;28;20113;-70
2021/04/22 07:42:16;;;;;;;12.30;2.65;;;8.50;68.60;;;;;;5113795;28;20119;-70
2021/04/22 07:44:42;;;;;;;8.52;2.97;;;8.50;68.20;;;;;;5113417;28;20036;-70
2021/04/22 07:47:08;;;;;;;13.00;3.13;;;8.50;68.30;;;;;;5113964;28;20114;-70
2021/04/22 07:49:35;;;;;;;8.60;2.80;;;8.50;68.00;;;;;;5112947;28;20036;-70
2021/04/22 07:52:01;;;;;;;9.00;3.08;;;8.90;67.60;;;;;;5113661;28;20048;-70
2021/04/22 07:54:27;;;;;;;7.22;2.35;;;9.40;66.40;;;;;;5113881;28;20592;-70
2021/04/22 07:56:53;;;;;;;9.90;2.70;;;9.80;66.30;;;;;;5113636;28;20107;-70
2021/04/22 07:59:18;;;;;;;11.00;3.55;;;9.70;62.70;;;;;;5114076;28;20464;-70
2021/04/22 08:01:44;;;;;;;10.75;2.60;;;9.40;63.60;;;;;;5113492;28;20043;-70
2021/04/22 08:04:10;;;;;;;13.57;3.08;;;9.30;66.50;;;;;;5113445;28;20038;-70
2021/04/22 08:06:35;;;;;;;9.90;2.30;;;9.10;68.00;;;;;;5113241;28;20067;-70
2021/04/22 08:09:02;;;;;;;11.50;3.13;;;9.30;68.80;;;;;;5113647;28;20495;-70
2021/04/22 08:11:28;;;;;;;7.78;2.38;;;9.40;68.50;;;;;;5113556;28;20032;-70
2021/04/22 08:13:54;;;;;;;10.13;2.58;;;9.10;68.40;;;;;;5113973;28;20115;-70
2021/04/22 08:16:20;;;;;;;5.38;2.60;;;9.40;69.10;;;;;;5113026;28;20040;-70
2021/04/22 08:18:46;;;;;;;10.52;2.63;;;9.70;67.80;;;;;;5113721;28;20571;-70
2021/04/22 08:21:12;;;;;;;8.95;2.28;;;10.20;66.90;;;;;;5113617;28;20525;-69
2021/04/22 08:23:38;;;;;;;11.50;2.13;;;10.10;65.90;;;;;;5112137;28;20043;-70
2021/04/22 08:26:07;;;;;;;5.22;2.05;;;10.60;65.10;;;;;;5113064;28;20036;-69
2021/04/22 08:28:34;;;;;;;9.70;2.75;;;10.50;65.20;;;;;;5113639;28;20035;-70
2021/04/22 08:31:07;;;;;;;6.50;2.10;;;10.20;64.70;;;;;;5115096;28;20403;-70
2021/04/22 08:33:35;;;;;;;13.57;2.67;;;10.20;65.80;;;;;;5117927;28;20058;-70
2021/04/22 08:36:01;;;;;;;7.18;2.60;;;10.00;65.30;;;;;;5116601;28;20043;-70
2021/04/22 08:38:27;;;;;;;13.38;2.80;;;9.70;65.40;;;;;;5117126;28;20467;-70
2021/04/22 08:40:54;;;;;;;9.63;3.00;;;9.50;66.60;;;;;;5117205;27;20035;-70
2021/04/22 08:43:20;;;;;;;9.20;3.30;;;9.10;65.80;;;;;;5117042;28;20502;-70
2021/04/22 08:45:47;;;;;;;11.27;3.38;;;9.10;66.00;;;;;;5116570;28;20039;-70
2021/04/22 08:48:13;;;;;;;11.23;3.45;;;9.60;65.70;;;;;;5115799;28;20088;-70
2021/04/22 08:50:42;;;;;;;11.68;2.58;;;10.10;64.30;;;;;;5116389;28;20040;-70
2021/04/22 08:53:12;;;;;;;10.60;2.97;;;9.80;62.20;;;;;;5116827;28;20036;-70
2021/04/22 08:55:37;;;;;;;8.45;2.10;;;10.20;61.50;;;;;;5116701;28;20039;-70
2021/04/22 08:58:06;;;;;;;11.38;2.78;;;9.70;61.80;;;;;;5116779;28;20046;-70
2021/04/22 09:00:38;;;;;;;11.57;2.50;;;9.70;63.30;;;;;;5117459;28;20090;-70
2021/04/22 09:03:04;;;;;;;7.82;2.58;;;9.70;64.60;;;;;;5116802;28;20036;-70
2021/04/22 09:05:30;;;;;;;12.45;2.78;;;9.60;65.70;;;;;;5116323;28;20123;-70
2021/04/22 09:07:55;;;;;;;7.45;2.72;;;10.20;66.20;;;;;;5116548;28;20189;-70
2021/04/22 09:10:24;;;;;;;11.60;3.20;;;10.40;64.50;;;;;;5116681;28;20032;-69
2021/04/22 09:13:15;;;;;;;9.75;2.72;;;10.40;65.40;;;;;;5116475;28;20043;-70
2021/04/22 09:15:44;;;;;;;8.15;3.10;;;10.70;65.30;;;;;;5114955;28;20067;-70
2021/04/22 09:18:17;;;;;;;8.00;2.83;;;10.40;65.50;;;;;;5116855;28;20043;-70
2021/04/22 09:20:49;;;;;;;19.98;3.83;;;10.60;66.30;;;;;;5116372;28;20118;-70
2021/04/22 09:23:25;;;;;;;14.90;3.60;;;10.60;63.90;;;;;;5116226;27;20543;-70
2021/04/22 09:26:03;;;;;;;7.30;2.08;;;10.80;62.60;;;;;;5115923;27;20132;-70
2021/04/22 09:28:39;;;;;;;5.35;2.17;;;10.60;58.40;;;;;;5116208;28;20039;-70
2021/04/22 09:31:07;;;;;;;6.47;2.05;;;10.90;57.80;;;;;;5116066;28;20047;-69
2021/04/22 09:33:34;;;;;;;8.00;1.85;;;11.20;57.90;;;;;;5116509;28;20524;-70
2021/04/22 09:36:12;;;;;;;7.40;1.85;;;11.30;56.50;;;;;;5115899;28;20036;-70
2021/04/22 09:38:40;;;;;;;4.70;1.92;;;11.50;55.20;;;;;;5116093;27;20051;-70
2021/04/22 09:41:11;;;;;;;8.55;2.60;;;11.60;55.70;;;;;;5116037;28;20032;-70
2021/04/22 09:43:37;;;;;;;12.43;3.33;;;11.30;57.30;;;;;;5115867;28;20407;-70
2021/04/22 09:46:03;;;;;;;7.55;3.35;;;11.00;61.20;;;;;;5115496;28;20483;-70
2021/04/22 09:48:31;;;;;;;8.68;2.80;;;10.80;62.30;;;;;;5116181;28;20139;-70
2021/04/22 09:50:59;;;;;;;9.40;2.70;;;10.80;63.20;;;;;;5116417;28;20548;-70
2021/04/22 09:53:26;;;;;;;7.93;2.40;;;10.70;62.70;;;;;;5115954;28;20097;-70
2021/04/22 09:55:57;;;;;;;9.95;2.40;;;10.90;62.10;;;;;;5115702;28;20122;-70
2021/04/22 09:58:28;;;;;;;12.45;2.55;;;10.90;62.00;;;;;;5115996;28;20042;-70
2021/04/22 10:00:55;;;;;;;4.50;2.70;;;11.10;61.70;;;;;;5115554;28;20429;-70
2021/04/22 10:03:21;;;;;;;7.25;2.20;;;11.10;61.70;;;;;;5115035;28;20106;-70
2021/04/22 10:05:57;;;;;;;10.30;2.58;;;11.00;60.60;;;;;;5114950;28;20035;-70
2021/04/22 10:08:23;;;;;;;9.32;2.33;;;11.10;61.10;;;;;;5115579;28;20142;-70
2021/04/22 10:11:10;;;;;;;5.72;2.40;;;11.20;61.50;;;;;;5115722;28;20111;-70
2021/04/22 10:13:47;;;;;;;7.65;2.30;;;11.10;61.00;;;;;;5115641;28;20088;-70
2021/04/22 10:16:13;;;;;;;11.55;2.50;;;10.40;61.20;;;;;;5115104;28;20039;-70
2021/04/22 10:18:42;;;;;;;6.68;2.40;;;10.50;62.40;;;;;;5115324;28;20509;-70
2021/04/22 10:21:08;;;;;;;8.43;2.22;;;10.70;61.50;;;;;;5115407;28;20038;-70
2021/04/22 10:23:34;;;;;;;11.63;2.55;;;10.90;61.60;;;;;;5115010;28;20031;-70
2021/04/22 10:26:00;;;;;;;11.10;2.38;;;10.30;61.10;;;;;;5115021;28;20539;-70
2021/04/22 10:28:26;;;;;;;8.43;2.80;;;10.40;61.80;;;;;;5115742;28;20040;-70
2021/04/22 10:30:56;;;;;;;10.07;2.58;;;10.30;61.30;;;;;;5114944;28;20039;-70
2021/04/22 10:33:23;;;;;;;8.02;2.92;;;10.00;59.60;;;;;;5114983;28;20084;-70
2021/04/22 10:35:49;;;;;;;8.15;3.20;;;10.00;60.90;;;;;;5114549;28;20046;-70
2021/04/22 10:38:18;;;;;;;8.65;2.58;;;10.30;61.60;;;;;;5115378;28;20059;-70
2021/04/22 10:40:48;;;;;;;11.75;3.53;;;10.30;62.50;;;;;;5113639;28;20044;-70
2021/04/22 10:43:23;;;;;;;11.55;2.92;;;10.40;64.00;;;;;;5115399;28;20068;-70
2021/04/22 10:45:49;;;;;;;13.18;2.80;;;10.00;62.60;;;;;;5114328;28;20528;-70
2021/04/22 10:48:15;;;;;;;11.65;2.50;;;10.40;61.90;;;;;;5114728;28;20066;-70
2021/04/22 10:50:43;;;;;;;13.93;3.00;;;10.40;62.10;;;;;;5113275;28;20448;-70
2021/04/22 10:53:13;;;;;;;8.57;2.88;;;10.60;61.80;;;;;;5114272;28;20039;-70
2021/04/22 10:55:41;;;;;;;12.68;2.55;;;10.80;61.20;;;;;;5114144;28;20035;-70
2021/04/22 10:58:36;;;;;;;11.20;2.63;;;10.90;60.90;;;;;;5114639;28;20058;-70
2021/04/22 11:01:08;;;;;;;13.07;3.22;;;11.10;60.20;;;;;;5115058;28;20356;-70
2021/04/22 11:03:42;;;;;;;7.50;2.10;;;11.00;58.50;;;;;;5114542;28;20092;-70
2021/04/22 11:06:10;;;;;;;6.70;2.53;;;10.40;58.70;;;;;;5114069;28;20472;-70
2021/04/22 11:08:47;;;;;;;9.82;2.47;;;10.70;59.60;;;;;;5114451;27;20475;-70
2021/04/22 11:11:34;;;;;;;14.40;2.80;;;10.60;60.10;;;;;;5114977;28;20383;-70
2021/04/22 11:14:14;;;;;;;6.88;2.17;;;10.30;60.20;;;;;;5114206;28;20071;-70
2021/04/22 11:16:52;;;;;;;7.63;2.35;;;10.40;61.50;;;;;;5114105;28;20123;-70
2021/04/22 11:19:21;;;;;;;7.72;2.65;;;10.50;58.30;;;;;;5114028;28;20054;-70
2021/04/22 11:21:58;;;;;;;7.38;2.67;;;10.70;59.10;;;;;;5114163;28;20046;-70
2021/04/22 11:24:39;;;;;;;7.30;2.42;;;10.70;59.20;;;;;;5112854;28;20050;-70
2021/04/22 11:27:14;;;;;;;7.00;2.83;;;11.00;60.40;;;;;;5114676;28;20044;-70
2021/04/22 11:29:43;;;;;;;7.00;2.58;;;11.00;59.90;;;;;;5113979;28;20559;-70
2021/04/22 11:32:19;;;;;;;7.97;2.58;;;10.70;59.20;;;;;;5114401;28;20039;-70
2021/04/22 11:34:45;;;;;;;7.63;2.25;;;10.50;60.00;;;;;;5113456;28;20036;-70
2021/04/22 11:37:20;;;;;;;10.75;2.60;;;10.60;61.40;;;;;;5113951;28;20039;-70
2021/04/22 11:39:46;;;;;;;9.00;2.70;;;10.60;62.50;;;;;;5114326;28;20119;-70
2021/04/22 11:42:13;;;;;;;11.55;2.83;;;10.50;62.10;;;;;;5112675;28;20044;-70
2021/04/22 11:44:52;;;;;;;11.27;2.95;;;10.50;62.90;;;;;;5113370;28;20035;-70
2021/04/22 11:47:26;;;;;;;5.30;2.53;;;10.30;62.30;;;;;;5114165;28;20402;-70
2021/04/22 11:50:16;;;;;;;10.52;2.58;;;10.20;62.60;;;;;;5114333;28;20429;-70
2021/04/22 11:52:53;;;;;;;9.25;2.97;;;10.10;62.90;;;;;;5113706;28;20523;-70
2021/04/22 11:55:34;;;;;;;8.80;2.33;;;10.10;62.50;;;;;;5113434;28;20089;-70
2021/04/22 11:58:09;;;;;;;9.43;2.45;;;10.50;62.60;;;;;;5114162;28;20032;-70
2021/04/22 12:00:50;;;;;;;5.28;2.30;;;10.70;61.70;;;;;;5113894;28;20100;-70
2021/04/22 12:03:24;;;;;;;7.10;2.08;;;10.90;60.30;;;;;;5113275;28;20437;-70
2021/04/22 12:05:51;;;;;;;9.85;1.98;;;11.00;60.30;;;;;;5115192;28;20451;-70
2021/04/22 12:08:17;;;;;;;8.50;2.53;;;10.60;58.80;;;;;;5117433;28;20050;-70
2021/04/22 12:10:48;;;;;;;11.43;2.15;;;10.40;60.00;;;;;;5118304;28;20077;-70
2021/04/22 12:13:20;;;;;;;7.43;2.15;;;10.10;59.70;;;;;;5117991;28;20064;-69
2021/04/22 12:15:48;;;;;;;8.13;2.15;;;10.20;60.90;;;;;;5117192;28;20559;-69
2021/04/22 12:18:23;;;;;;;8.10;2.38;;;10.30;60.90;;;;;;5117977;28;20047;-70
2021/04/22 12:20:54;;;;;;;5.22;2.15;;;10.40;60.50;;;;;;5117414;28;20115;-70
2021/04/22 12:23:30;;;;;;;9.85;2.50;;;10.30;60.20;;;;;;5117616;27;20456;-73
2021/04/22 12:25:56;;;;;;;6.68;2.10;;;10.30;60.20;;;;;;5116966;28;20037;-70
2021/04/22 12:28:22;;;;;;;9.60;3.05;;;10.40;61.40;;;;;;5117773;28;20524;-69
2021/04/22 12:30:49;;;;;;;7.65;2.45;;;10.70;61.90;;;;;;5116067;28;20031;-70
2021/04/22 12:33:17;;;;;;;10.45;3.25;;;10.50;60.00;;;;;;5117175;28;20039;-70
2021/04/22 12:35:52;;;;;;;11.05;2.70;;;10.70;60.80;;;;;;5116868;28;20081;-71
2021/04/22 12:38:26;;;;;;;9.25;2.38;;;10.70;59.60;;;;;;5127941;27;20038;-71
2021/04/22 12:41:02;;;;;;;;;;;10.60;59.00;;;;;;5138574;27;20070;-70
2021/04/22 12:43:31;;;;;;;5.40;2.13;;;10.50;59.30;;;;;;5137903;27;19965;-70
2021/04/22 12:46:08;;;;;;;10.57;2.97;;;10.60;59.80;;;;;;5137292;27;20055;-70
2021/04/22 12:48:34;;;;;;;11.27;2.97;;;10.80;59.90;;;;;;5136920;27;20031;-70
2021/04/22 12:51:00;;;;;;;8.13;2.38;;;10.70;61.50;;;;;;5137876;27;20471;-71
2021/04/22 12:53:29;;;;;;;15.88;2.90;;;10.50;62.20;;;;;;5138253;27;20057;-71